Startpagina
METAR-TAF:

METAR-TAF

Vliegvelden :

Sukkur, Pakistan

breedte: 27-43-19N, lengte: 068-47-31E, hoogte: 60 m

Actueel weer

Dit bericht is 31 minuten geleden gemaakt, om 12:00 UTC
Wind 6 kt uit het zuidwesten
Temperatuur 39°C
Vochtigheid 30%
Druk
Zicht: 1002 m
Heiigheid

METAR: OPSK 191200Z 23006KT 4000 HZ NSC 39/18 QNH 1002 NOSIG

Tijdstip: 17:31 (12:31 UTC)

Verwachting

Dit bericht is 2 uur en het 31 minuten geleden gemaakt, om 10:00 UTC
Verwachting geldig van 19 om 12 UTC tot 20 om 12 UTC
Wind 8 kt uit het zuiden met uitschieters tot 18 kt
Zicht: 6000 m
Tijdelijke
van 20 om 00 UTC tot 20 om 04 UTC
Wind 8 kt uit het zuiden
Zicht: 4000 m
Heiigheid
Van UTC
Wind 8 kt uit het zuiden met uitschieters tot 18 kt
Zicht: 6000 m

TAF: OPSK 191000Z 1912/2012 18008G18KT 6000 NSC TEMPO 2000/2004 18008KT 4000 HZ NSC FM 200600 18008G18KT 6000 NSC

Waarnemingen en weersverwachtingen van meer dan 4000 vliegvelden (METAR en TAF).

De beschikbare stations zijn de gele en rode punten op de kaart.

Ga met uw muis naar het station om de naam te zien.

Klik dan om waarnemingen en weersverwachtingen te zien.

kaart wijzigen: klik op de groene knoppen met een zwart kruis om in te zoomen, op de groene knop met een streepje om uit te zoomen of op de groene pijlen voor aangrenzende kaarten.


METAR-TAF: